Time;durP1;ratioP1;P1;durP2;ratioP2;P2;SDS_P1;SDS_P2;PMS_P1;PMS_P2;Temp;Humidity;BMP_temperature;BMP_pressure;BME280_temperature;BME280_humidity;BME280_pressure;Samples;Min_cycle;Max_cycle;Signal;HPM_P1;HPM_P2
2022/09/03 00:05:22;;;;;;;0.95;0.60;;;15.20;95.60;;;;;;5024605;28;20052;-85
2022/09/03 00:08:48;;;;;;;;;;;;;;;;;;;;;
2022/09/03 00:11:49;;;;;;;1.20;0.75;;;15.10;95.60;;;;;;5023713;28;20057;-85
2022/09/03 00:15:10;;;;;;;3.88;0.60;;;15.00;95.90;;;;;;5030621;28;20044;-85
2022/09/03 00:18:07;;;;;;;1.25;0.63;;;15.00;96.10;;;;;;5007595;28;20111;-86
2022/09/03 00:21:07;;;;;;;0.90;0.70;;;14.70;95.80;;;;;;5015175;28;20402;-85
2022/09/03 00:23:51;;;;;;;1.23;0.80;;;14.90;96.10;;;;;;4997268;28;20053;-85
2022/09/03 00:26:53;;;;;;;0.60;0.60;;;14.70;95.80;;;;;;4945796;28;20058;-85
2022/09/03 00:29:55;;;;;;;1.30;0.90;;;14.70;96.20;;;;;;4943863;28;20052;-86
2022/09/03 00:33:12;;;;;;;2.25;0.90;;;15.20;96.50;;;;;;4928068;28;20062;-86
2022/09/03 00:36:23;;;;;;;1.23;0.70;;;15.00;96.50;;;;;;4945615;28;20043;-86
2022/09/03 00:39:04;;;;;;;3.05;0.93;;;14.80;96.70;;;;;;4940826;28;20031;-86
2022/09/03 00:42:10;;;;;;;1.23;0.90;;;15.30;96.70;;;;;;4927916;28;20091;-86
2022/09/03 00:49:00;;;;;;;0.90;0.70;;;14.50;97.10;;;;;;4918291;29;20414;-84
2022/09/03 00:52:20;;;;;;;0.82;0.60;;;14.50;97.30;;;;;;4901178;29;20056;-86
2022/09/03 00:55:33;;;;;;;;;;;;;;;;;;;;;
2022/09/03 00:58:45;;;;;;;1.08;0.60;;;14.40;97.40;;;;;;4910687;29;20394;-86
2022/09/03 01:02:18;;;;;;;;;;;;;;;;;;;;;
2022/09/03 01:05:35;;;;;;;;;;;;;;;;;;;;;
2022/09/03 01:08:58;;;;;;;1.45;0.60;;;14.20;97.90;;;;;;4942798;28;20047;-86
2022/09/03 01:12:16;;;;;;;;;;;;;;;;;;;;;
2022/09/03 01:15:38;;;;;;;;;;;;;;;;;;;;;
2022/09/03 01:19:27;;;;;;;;;;;;;;;;;;;;;
2022/09/03 01:23:20;;;;;;;0.50;0.30;;;14.10;99.00;;;;;;4999615;28;20508;-86
2022/09/03 01:30:09;;;;;;;0.52;0.20;;;13.90;99.50;;;;;;5025120;28;20054;-86
2022/09/03 01:34:00;;;;;;;;;;;;;;;;;;;;;
2022/09/03 01:37:11;;;;;;;1.65;0.35;;;13.90;99.90;;;;;;4993395;28;20114;-86
2022/09/03 01:40:50;;;;;;;0.20;0.20;;;13.80;99.90;;;;;;4988772;28;20078;-86
2022/09/03 01:51:36;;;;;;;0.20;0.20;;;13.70;99.90;;;;;;4917179;29;20469;-87
2022/09/03 01:55:15;;;;;;;0.35;0.30;;;13.80;99.90;;;;;;4923288;29;20495;-86
2022/09/03 02:02:25;;;;;;;0.22;0.20;;;13.80;99.90;;;;;;4899164;29;20138;-86
2022/09/03 02:05:42;;;;;;;0.40;0.30;;;14.40;99.90;;;;;;4872139;29;20068;-87
2022/09/03 02:09:13;;;;;;;0.43;0.30;;;13.80;99.90;;;;;;4855208;29;20515;-86
2022/09/03 02:12:44;;;;;;;0.20;0.20;;;13.90;99.90;;;;;;4857861;29;20057;-86
2022/09/03 02:15:55;;;;;;;;;;;;;;;;;;;;;
2022/09/03 02:19:09;;;;;;;;;;;;;;;;;;;;;
2022/09/03 02:22:07;;;;;;;;;;;13.70;99.90;;;;;;4847546;29;20054;-86
2022/09/03 02:24:58;;;;;;;0.57;0.30;;;14.00;99.90;;;;;;4845723;29;19928;-86
2022/09/03 02:27:47;;;;;;;0.40;0.40;;;14.10;99.90;;;;;;4873898;29;20057;-86
2022/09/03 02:30:33;;;;;;;;;;;;;;;;;;;;;
2022/09/03 02:33:39;;;;;;;0.40;0.30;;;14.10;99.90;;;;;;4878643;29;20060;-87
2022/09/03 02:36:35;;;;;;;;;;;;;;;;;;;;;
2022/09/03 02:39:36;;;;;;;;;;;;;;;;;;;;;
2022/09/03 02:42:16;;;;;;;0.98;0.38;;;14.10;99.90;;;;;;4881534;29;20217;-85
2022/09/03 02:45:05;;;;;;;0.30;0.20;;;14.10;99.90;;;;;;4884987;29;20052;-87
2022/09/03 02:47:54;;;;;;;0.35;0.30;;;14.10;99.90;;;;;;4891217;29;20053;-88
2022/09/03 02:54:23;;;;;;;;;;;;;;;;;;;;;
2022/09/03 02:57:05;;;;;;;0.43;0.30;;;14.00;99.90;;;;;;4930351;29;20050;-87
2022/09/03 02:59:56;;;;;;;2.38;0.40;;;14.00;99.90;;;;;;4942370;28;20066;-87
2022/09/03 03:02:54;;;;;;;0.40;0.40;;;14.00;99.90;;;;;;5033886;28;20038;-88
2022/09/03 03:05:56;;;;;;;0.80;0.30;;;14.00;99.90;;;;;;5012101;28;20053;-87
2022/09/03 03:08:56;;;;;;;0.57;0.40;;;14.00;99.90;;;;;;5029641;28;20056;-87
2022/09/03 03:11:45;;;;;;;5.32;0.40;;;14.00;99.90;;;;;;5017632;28;20121;-87
2022/09/03 03:14:41;;;;;;;0.30;0.30;;;13.90;99.90;;;;;;5015249;28;20046;-87
2022/09/03 03:17:40;;;;;;;0.43;0.30;;;13.90;99.90;;;;;;5025174;28;20061;-84
2022/09/03 03:21:15;;;;;;;;;;;;;;;;;;;;;
2022/09/03 03:24:07;;;;;;;1.48;0.40;;;13.80;99.90;;;;;;5022445;28;20068;-84
2022/09/03 03:27:09;;;;;;;0.90;0.40;;;13.80;99.90;;;;;;5033567;28;20045;-84
2022/09/03 03:30:24;;;;;;;;;;;;;;;;;;;;;
2022/09/03 03:41:07;;;;;;;0.90;0.40;;;13.80;99.90;;;;;;4943939;28;20167;-85
2022/09/03 03:43:41;;;;;;;0.80;0.40;;;13.80;99.90;;;;;;4945419;29;20192;-86
2022/09/03 03:46:44;;;;;;;0.82;0.50;;;13.80;99.90;;;;;;4952484;28;20138;-85
2022/09/03 03:49:43;;;;;;;0.60;0.40;;;13.80;99.90;;;;;;4949358;28;20509;-85
2022/09/03 03:52:33;;;;;;;1.05;0.50;;;13.80;99.90;;;;;;4950657;28;20054;-86
2022/09/03 03:55:21;;;;;;;1.00;0.40;;;13.80;99.90;;;;;;4941724;28;20047;-85
2022/09/03 03:58:16;;;;;;;1.50;0.50;;;14.00;99.90;;;;;;4944924;28;20440;-86
2022/09/03 04:08:27;;;;;;;0.57;0.35;;;14.10;99.90;;;;;;4946233;28;20074;-86
2022/09/03 04:11:17;;;;;;;;;;;;;;;;;;;;;
2022/09/03 04:14:33;;;;;;;0.35;0.35;;;14.00;99.90;;;;;;5029935;28;20112;-87
2022/09/03 04:17:38;;;;;;;0.35;0.30;;;13.90;99.90;;;;;;4920731;29;20130;-87
2022/09/03 04:20:41;;;;;;;0.55;0.40;;;13.80;99.90;;;;;;4947680;28;20150;-85
2022/09/03 04:23:49;;;;;;;0.57;0.30;;;13.90;99.90;;;;;;4948976;28;20456;-86
2022/09/03 04:26:49;;;;;;;0.38;0.30;;;13.90;99.90;;;;;;4930490;29;20055;-85
2022/09/03 04:29:40;;;;;;;1.17;0.43;;;13.90;99.90;;;;;;4947346;29;20079;-85
2022/09/03 04:36:08;;;;;;;0.40;0.30;;;14.00;99.90;;;;;;4905109;29;20082;-86
2022/09/03 04:38:56;;;;;;;0.82;0.50;;;14.00;99.90;;;;;;4952876;28;20050;-87
2022/09/03 04:41:28;;;;;;;;;;;14.00;99.90;;;;;;4952666;28;20055;-86
2022/09/03 04:44:02;;;;;;;0.63;0.43;;;14.00;99.90;;;;;;4920974;29;20001;-86
2022/09/03 04:46:39;;;;;;;0.98;0.43;;;14.00;99.90;;;;;;4897140;29;20039;-86
2022/09/03 04:49:46;;;;;;;0.47;0.30;;;13.90;99.90;;;;;;4951494;28;20134;-85
2022/09/03 04:52:37;;;;;;;1.15;0.40;;;14.00;99.90;;;;;;4951658;28;20287;-86
2022/09/03 04:55:23;;;;;;;0.77;0.40;;;13.20;99.90;;;;;;5028092;28;20045;-85
2022/09/03 04:58:09;;;;;;;;;;;;;;;;;;;;;
2022/09/03 05:00:51;;;;;;;0.47;0.40;;;13.90;99.90;;;;;;5032636;28;20052;-87
2022/09/03 05:03:51;;;;;;;0.47;0.40;;;13.90;99.90;;;;;;5029958;28;20045;-86
2022/09/03 05:07:28;;;;;;;0.45;0.30;;;13.90;99.90;;;;;;5030702;28;20049;-86
2022/09/03 05:10:09;;;;;;;0.40;0.40;;;13.80;99.90;;;;;;4987270;28;20108;-86
2022/09/03 05:12:43;;;;;;;0.50;0.40;;;13.80;99.90;;;;;;5035812;28;20033;-85
2022/09/03 05:15:25;;;;;;;1.00;0.45;;;13.80;99.90;;;;;;5033945;28;20045;-85
2022/09/03 05:18:17;;;;;;;0.80;0.50;;;13.70;99.90;;;;;;5027232;28;20058;-85
2022/09/03 05:21:17;;;;;;;;;;;;;;;;;;;;;
2022/09/03 05:24:01;;;;;;;0.52;0.30;;;14.10;99.90;;;;;;5033334;28;20050;-85
2022/09/03 05:26:57;;;;;;;;;;;;;;;;;;;;;
2022/09/03 05:29:57;;;;;;;1.15;0.30;;;13.60;99.90;;;;;;5023426;28;20128;-85
2022/09/03 05:32:44;;;;;;;0.70;0.40;;;13.50;99.90;;;;;;5023383;28;20084;-85
2022/09/03 05:35:31;;;;;;;0.88;0.40;;;13.60;99.90;;;;;;5025651;28;20041;-86
2022/09/03 05:38:26;;;;;;;;;;;;;;;;;;;;;
2022/09/03 05:41:14;;;;;;;0.68;0.50;;;13.60;99.90;;;;;;5032465;28;20084;-85
2022/09/03 05:44:03;;;;;;;1.33;0.43;;;13.70;99.90;;;;;;5035456;28;20041;-85
2022/09/03 05:46:44;;;;;;;0.73;0.45;;;13.70;99.90;;;;;;5021120;28;20057;-85
2022/09/03 06:01:01;;;;;;;0.60;0.47;;;13.90;99.90;;;;;;5023666;28;20041;-85
2022/09/03 06:03:46;;;;;;;;;;;;;;;;;;;;;
2022/09/03 06:07:02;;;;;;;0.30;0.30;;;14.00;99.90;;;;;;5033733;28;20041;-87
2022/09/03 06:10:11;;;;;;;0.85;0.38;;;14.50;99.90;;;;;;5023985;28;20494;-87
2022/09/03 06:13:03;;;;;;;0.50;0.40;;;14.20;99.90;;;;;;5032797;28;20310;-85
2022/09/03 06:16:15;;;;;;;0.70;0.40;;;14.30;99.90;;;;;;5025812;28;20456;-87
2022/09/03 06:19:15;;;;;;;1.25;0.50;;;14.20;99.90;;;;;;4956956;28;20053;-86
2022/09/03 06:22:34;;;;;;;;;;;;;;;;;;;;;
2022/09/03 06:25:18;;;;;;;0.88;0.50;;;14.60;99.90;;;;;;4955826;28;20533;-87
2022/09/03 06:28:07;;;;;;;1.05;0.30;;;14.70;99.90;;;;;;4972146;28;20468;-87
2022/09/03 06:30:50;;;;;;;0.65;0.40;;;14.80;99.90;;;;;;4967699;28;20058;-86
2022/09/03 06:34:02;;;;;;;1.33;0.40;;;14.50;99.90;;;;;;4973428;28;20043;-86
2022/09/03 06:37:23;;;;;;;0.85;0.40;;;14.70;99.90;;;;;;4963262;28;20047;-87
2022/09/03 06:40:30;;;;;;;2.35;0.50;;;15.10;99.90;;;;;;4878219;29;20057;-87
2022/09/03 06:54:20;;;;;;;0.73;0.40;;;15.70;99.90;;;;;;5118008;23;20045;-87
2022/09/03 06:56:51;;;;;;;2.17;0.40;;;15.80;99.90;;;;;;4979151;28;20133;-84
2022/09/03 06:59:17;;;;;;;4.40;0.55;;;15.90;99.90;;;;;;4986698;28;20057;-85
2022/09/03 07:01:46;;;;;;;1.48;0.50;;;15.50;99.90;;;;;;4996418;28;20117;-85
2022/09/03 07:04:18;;;;;;;0.90;0.50;;;16.10;99.80;;;;;;4980274;28;20043;-84
2022/09/03 07:06:46;;;;;;;0.75;0.32;;;16.20;99.80;;;;;;4974415;28;20042;-84
2022/09/03 07:09:14;;;;;;;1.08;0.50;;;16.20;99.80;;;;;;4999521;28;20039;-86
2022/09/03 07:11:45;;;;;;;1.25;0.50;;;16.40;99.50;;;;;;4962899;28;20047;-84
2022/09/03 07:14:36;;;;;;;3.53;0.40;;;16.50;99.60;;;;;;5002170;28;20045;-86
2022/09/03 07:17:11;;;;;;;2.33;0.52;;;16.60;99.20;;;;;;5002372;28;20042;-87
2022/09/03 07:19:51;;;;;;;1.42;0.52;;;16.70;98.90;;;;;;4987047;28;20041;-86
2022/09/03 07:22:37;;;;;;;;;;;;;;;;;;;;;
2022/09/03 07:25:45;;;;;;;0.88;0.40;;;16.90;98.30;;;;;;4995428;28;20049;-88
2022/09/03 07:28:30;;;;;;;0.40;0.30;;;17.30;98.80;;;;;;4964703;28;20562;-85
2022/09/03 07:31:32;;;;;;;0.38;0.32;;;17.10;98.50;;;;;;4978019;28;20050;-86
2022/09/03 07:37:37;;;;;;;0.43;0.30;;;17.40;98.10;;;;;;4978503;28;20050;-86
2022/09/03 07:40:16;;;;;;;1.02;0.40;;;17.60;98.20;;;;;;5004805;28;20046;-86
2022/09/03 07:42:52;;;;;;;2.40;0.38;;;17.60;97.50;;;;;;5013332;28;20042;-86
2022/09/03 07:45:25;;;;;;;0.47;0.30;;;17.80;97.70;;;;;;5014603;28;20052;-85
2022/09/03 07:48:13;;;;;;;1.10;0.40;;;17.90;97.60;;;;;;4994877;28;20414;-86
2022/09/03 07:50:54;;;;;;;0.65;0.40;;;18.00;97.30;;;;;;4994266;28;20050;-86
2022/09/03 07:53:43;;;;;;;1.08;0.30;;;18.10;97.60;;;;;;5002164;28;20042;-85
2022/09/03 07:56:38;;;;;;;0.73;0.40;;;18.30;97.40;;;;;;5011020;28;20513;-86
2022/09/03 07:59:13;;;;;;;1.10;0.30;;;18.50;97.30;;;;;;5013938;28;20077;-86
2022/09/03 08:01:58;;;;;;;0.70;0.35;;;18.40;95.90;;;;;;4996299;28;20045;-86
2022/09/03 08:05:31;;;;;;;0.98;0.30;;;18.80;96.60;;;;;;5006018;22;20368;-86
2022/09/03 08:12:17;;;;;;;0.60;0.40;;;19.10;96.20;;;;;;4953259;29;20047;-89
2022/09/03 08:15:16;;;;;;;;;;;;;;;;;;;;;
2022/09/03 08:40:11;;;;;;;0.57;0.30;;;20.40;93.70;;;;;;4952752;29;20042;-85
2022/09/03 08:43:12;;;;;;;0.55;0.30;;;20.60;93.20;;;;;;4952471;29;20047;-85
2022/09/03 08:45:52;;;;;;;0.65;0.40;;;20.70;92.90;;;;;;4970137;28;20451;-84
2022/09/03 08:48:28;;;;;;;0.70;0.30;;;20.80;92.20;;;;;;5013452;28;20046;-84
2022/09/03 08:51:11;;;;;;;0.45;0.20;;;20.90;93.10;;;;;;4998482;28;20056;-85
2022/09/03 08:54:03;;;;;;;1.75;0.30;;;21.00;92.40;;;;;;4996853;28;20052;-83
2022/09/03 09:31:41;;;;;;;0.75;0.30;;;22.10;90.80;;;;;;6223081;23;20029;-90
2022/09/03 09:34:26;;;;;;;1.50;0.40;;;22.50;90.00;;;;;;6198801;23;20027;-90
2022/09/03 09:37:08;;;;;;;1.88;0.30;;;22.30;90.40;;;;;;6226022;23;20025;-94
2022/09/03 09:39:59;;;;;;;0.57;0.20;;;22.50;90.70;;;;;;6226173;23;20088;-93
2022/09/03 09:42:43;;;;;;;2.45;0.30;;;22.70;90.20;;;;;;6225566;23;20012;-93
2022/09/03 09:45:32;;;;;;;1.65;0.30;;;22.80;89.10;;;;;;6227317;23;20451;-94
2022/09/03 09:48:49;;;;;;;;;;;;;;;;;;;;;
2022/09/03 09:54:45;;;;;;;0.32;0.22;;;23.20;88.60;;;;;;6166377;22;20021;-84
2022/09/03 09:57:36;;;;;;;0.40;0.20;;;23.30;88.60;;;;;;6173011;23;20025;-83
2022/09/03 10:00:23;;;;;;;0.45;0.20;;;23.40;86.40;;;;;;6161466;23;20017;-84
2022/09/03 10:10:20;;;;;;;0.80;0.28;;;23.80;85.60;;;;;;6161675;23;20028;-83
2022/09/03 10:13:01;;;;;;;0.40;0.20;;;23.90;85.60;;;;;;6136830;23;20021;-83
2022/09/03 10:15:57;;;;;;;0.80;0.20;;;24.00;83.00;;;;;;6161736;23;20515;-84
2022/09/03 10:19:11;;;;;;;2.45;0.25;;;24.10;85.40;;;;;;6154721;23;20064;-83
2022/09/03 10:22:26;;;;;;;;;;;;;;;;;;;;;
2022/09/03 10:25:09;;;;;;;0.80;0.30;;;24.30;82.90;;;;;;6130093;23;20049;-84
2022/09/03 10:27:51;;;;;;;0.85;0.20;;;24.40;81.30;;;;;;6154705;23;20052;-84
2022/09/03 10:55:45;;;;;;;1.20;0.25;;;25.40;76.60;;;;;;6186812;23;20016;-84
2022/09/03 10:58:29;;;;;;;2.10;0.20;;;25.50;76.30;;;;;;6186341;23;20017;-84
2022/09/03 11:01:29;;;;;;;0.93;0.30;;;25.70;77.20;;;;;;6186634;23;20025;-84
2022/09/03 11:04:45;;;;;;;0.40;0.20;;;25.70;75.80;;;;;;6187179;23;20393;-84
2022/09/03 11:07:29;;;;;;;;;;;;;;;;;;;;;
2022/09/03 11:10:04;;;;;;;0.30;0.22;;;26.10;74.30;;;;;;6185057;23;20017;-84
2022/09/03 11:13:42;;;;;;;1.55;0.20;;;26.00;72.50;;;;;;6186468;23;20021;-83
2022/09/03 11:16:36;;;;;;;0.65;0.30;;;26.10;74.50;;;;;;6013989;23;20058;-84
2022/09/03 11:19:29;;;;;;;0.60;0.20;;;26.30;73.00;;;;;;6037763;23;20027;-83
2022/09/03 11:22:17;;;;;;;0.30;0.20;;;26.30;72.30;;;;;;6037771;23;20337;-83
2022/09/03 11:25:10;;;;;;;0.57;0.25;;;26.50;73.30;;;;;;6037413;23;20024;-83
2022/09/03 11:28:24;;;;;;;;;;;;;;;;;;;;;
2022/09/03 11:31:22;;;;;;;;;;;;;;;;;;;;;
2022/09/03 11:34:23;;;;;;;0.45;0.20;;;26.50;70.30;;;;;;6013901;23;20086;-83
2022/09/03 11:37:20;;;;;;;1.67;0.30;;;26.60;70.60;;;;;;6037073;23;20075;-83
2022/09/03 11:40:20;;;;;;;0.45;0.20;;;26.70;69.70;;;;;;6013351;23;20050;-84
2022/09/03 11:43:06;;;;;;;0.70;0.20;;;26.80;70.00;;;;;;5967367;23;20026;-84
2022/09/03 11:45:43;;;;;;;0.30;0.20;;;26.80;68.00;;;;;;6036799;23;20019;-85
2022/09/03 11:48:49;;;;;;;;;;;27.10;69.50;;;;;;6013606;23;20098;-84
2022/09/03 11:51:38;;;;;;;0.32;0.22;;;26.90;69.20;;;;;;6081971;23;19916;-83
2022/09/03 11:54:28;;;;;;;0.40;0.20;;;27.00;69.10;;;;;;6184960;23;20025;-88
2022/09/03 11:57:57;;;;;;;0.52;0.20;;;27.20;68.70;;;;;;6185992;23;20045;-90
2022/09/03 12:04:28;;;;;;;0.30;0.20;;;27.30;65.40;;;;;;6214959;23;20076;-86
2022/09/03 12:07:35;;;;;;;1.70;0.20;;;27.40;66.70;;;;;;6215373;23;20024;-86
2022/09/03 12:10:10;;;;;;;1.58;0.25;;;27.60;68.20;;;;;;6163674;23;20020;-86
2022/09/03 12:12:54;;;;;;;0.35;0.20;;;27.70;65.30;;;;;;6214873;23;20471;-86
2022/09/03 12:30:25;;;;;;;0.65;0.30;;;27.80;64.20;;;;;;6215450;23;20070;-83
2022/09/03 12:33:23;;;;;;;0.22;0.20;;;27.80;63.10;;;;;;6188757;23;20114;-87
2022/09/03 12:36:02;;;;;;;2.33;0.30;;;27.90;65.60;;;;;;6214320;23;20016;-86
2022/09/03 12:38:46;;;;;;;1.38;0.20;;;27.90;62.00;;;;;;6215363;23;20030;-84
2022/09/03 12:41:39;;;;;;;0.13;0.10;;;28.00;62.80;;;;;;6214938;23;20025;-85
2022/09/03 12:44:24;;;;;;;0.20;0.20;;;28.20;65.40;;;;;;6188888;23;20020;-85
2022/09/03 12:47:24;;;;;;;0.85;0.30;;;28.30;64.70;;;;;;6214327;23;20055;-85
2022/09/03 12:50:19;;;;;;;0.63;0.20;;;28.30;62.10;;;;;;6221236;23;20104;-87
2022/09/03 12:53:05;;;;;;;0.10;0.10;;;28.20;62.00;;;;;;6190294;23;20420;-85
2022/09/03 12:56:04;;;;;;;0.20;0.13;;;28.30;63.30;;;;;;6215095;23;20016;-85
2022/09/03 12:58:49;;;;;;;0.68;0.30;;;28.40;62.20;;;;;;6214154;23;20056;-85
2022/09/03 13:01:32;;;;;;;0.32;0.20;;;28.50;61.70;;;;;;6214928;23;20439;-85
2022/09/03 13:04:33;;;;;;;2.20;0.25;;;28.50;61.20;;;;;;6212570;23;20021;-87
2022/09/03 13:07:45;;;;;;;0.40;0.20;;;28.50;62.20;;;;;;6192062;23;20075;-85
2022/09/03 13:10:57;;;;;;;0.25;0.20;;;28.30;60.20;;;;;;6215252;23;20017;-86
2022/09/03 13:14:09;;;;;;;0.52;0.20;;;28.40;60.60;;;;;;6216054;23;20055;-87
2022/09/03 13:17:26;;;;;;;0.85;0.30;;;28.50;60.60;;;;;;6163347;23;20028;-84
2022/09/03 13:20:17;;;;;;;;;;;28.40;60.50;;;;;;6215396;23;20025;-84
2022/09/03 13:23:31;;;;;;;0.17;0.10;;;28.60;60.90;;;;;;6214481;23;19943;-83
2022/09/03 13:26:40;;;;;;;1.80;0.20;;;28.60;61.10;;;;;;6211982;23;20020;-84
2022/09/03 13:30:04;;;;;;;0.80;0.17;;;28.60;59.80;;;;;;6187653;23;20550;-83
2022/09/03 13:33:25;;;;;;;0.20;0.13;;;28.50;59.50;;;;;;6214564;23;20020;-89
2022/09/03 13:36:43;;;;;;;0.20;0.10;;;28.50;61.20;;;;;;6152585;23;20022;-86
2022/09/03 13:51:42;;;;;;;0.20;0.10;;;28.20;59.20;;;;;;6246304;23;20039;-91
2022/09/03 13:55:05;;;;;;;;;;;;;;;;;;;;;
2022/09/03 13:58:28;;;;;;;1.75;0.20;;;28.30;60.30;;;;;;6070149;23;20044;-85
2022/09/03 14:01:44;;;;;;;1.50;0.45;;;28.30;58.90;;;;;;6095557;23;20459;-85
2022/09/03 14:35:39;;;;;;;1.52;0.20;;;28.40;59.30;;;;;;6190453;22;21082;-88
2022/09/03 14:38:53;;;;;;;0.40;0.20;;;28.50;59.50;;;;;;6192003;23;20016;-87
2022/09/03 14:53:27;;;;;;;0.60;0.20;;;28.20;61.00;;;;;;6220319;22;20464;-85
2022/09/03 14:56:43;;;;;;;0.80;0.17;;;28.00;59.90;;;;;;6216947;23;20067;-84
2022/09/03 15:00:17;;;;;;;1.10;0.20;;;28.00;59.60;;;;;;6219707;23;20021;-85
2022/09/03 15:04:07;;;;;;;0.68;0.13;;;27.80;58.40;;;;;;6221433;23;20025;-84
2022/09/03 15:07:17;;;;;;;1.02;0.20;;;27.70;60.40;;;;;;6216354;23;20048;-85
2022/09/03 15:10:21;;;;;;;0.65;0.28;;;27.40;61.30;;;;;;6164373;23;20021;-84
2022/09/03 15:28:19;;;;;;;0.20;0.10;;;26.60;63.40;;;;;;6216275;23;20032;-82
2022/09/03 15:31:09;;;;;;;0.55;0.20;;;26.50;63.20;;;;;;6214992;23;20095;-83
2022/09/03 15:34:17;;;;;;;0.40;0.30;;;26.40;63.50;;;;;;6188623;23;20432;-84
2022/09/03 15:37:17;;;;;;;1.77;0.20;;;26.20;63.00;;;;;;6219046;23;20020;-84
2022/09/03 15:40:31;;;;;;;0.50;0.20;;;25.90;64.40;;;;;;6188630;23;20043;-84
2022/09/03 15:43:18;;;;;;;0.40;0.28;;;25.70;64.00;;;;;;6215624;23;20031;-85
2022/09/03 15:46:09;;;;;;;0.30;0.13;;;25.40;65.30;;;;;;6211260;23;20091;-86
2022/09/03 15:49:11;;;;;;;0.77;0.30;;;25.40;65.10;;;;;;6216132;23;20017;-85
2022/09/03 16:00:08;;;;;;;0.40;0.30;;;24.90;65.80;;;;;;6185995;23;20083;-86
2022/09/03 16:03:19;;;;;;;;;;;;;;;;;;;;;
2022/09/03 16:06:09;;;;;;;1.90;0.50;;;24.70;66.80;;;;;;6183683;23;20017;-86
2022/09/03 16:09:21;;;;;;;1.20;0.20;;;24.60;66.40;;;;;;6187156;23;20032;-85
2022/09/03 16:12:15;;;;;;;1.27;0.30;;;24.60;66.80;;;;;;6189451;23;20013;-84
2022/09/03 16:15:25;;;;;;;0.40;0.17;;;24.50;66.60;;;;;;6184255;23;20522;-85
2022/09/03 16:18:25;;;;;;;0.38;0.20;;;24.50;67.40;;;;;;6185626;23;20013;-85
2022/09/03 16:21:24;;;;;;;0.40;0.30;;;24.40;67.50;;;;;;6183924;23;20017;-85
2022/09/03 16:24:25;;;;;;;0.75;0.20;;;24.30;67.40;;;;;;6185202;23;20024;-85
2022/09/03 16:27:15;;;;;;;0.90;0.20;;;24.20;67.90;;;;;;6159333;23;20052;-85
2022/09/03 16:30:49;;;;;;;1.63;0.20;;;24.20;68.60;;;;;;6185058;23;20045;-85
2022/09/03 16:34:07;;;;;;;1.30;0.20;;;24.10;68.60;;;;;;6045190;23;20030;-86
2022/09/03 16:37:29;;;;;;;;;;;;;;;;;;;;;
2022/09/03 16:40:35;;;;;;;1.08;0.35;;;24.00;69.20;;;;;;6065297;23;20077;-85
2022/09/03 16:43:18;;;;;;;0.30;0.20;;;23.90;70.00;;;;;;6041298;23;20034;-85
2022/09/03 16:46:33;;;;;;;0.40;0.20;;;23.90;70.00;;;;;;6040706;23;20049;-84
2022/09/03 16:52:41;;;;;;;0.52;0.20;;;23.70;69.50;;;;;;6065110;23;20078;-84
2022/09/03 16:55:39;;;;;;;0.30;0.22;;;23.70;71.30;;;;;;6049191;23;20019;-84
2022/09/03 16:58:39;;;;;;;0.50;0.30;;;23.60;71.00;;;;;;6065513;23;20066;-87
2022/09/03 17:02:01;;;;;;;0.20;0.20;;;23.70;71.40;;;;;;6065268;23;20023;-86
2022/09/03 17:05:00;;;;;;;0.80;0.20;;;23.50;71.70;;;;;;6065064;23;20023;-85
2022/09/03 17:08:09;;;;;;;0.47;0.17;;;23.70;71.60;;;;;;6064973;23;20054;-86
2022/09/03 20:12:55;;;;;;;0.38;0.28;;;18.80;83.90;;;;;;6113027;23;20040;-85
2022/09/03 20:15:29;;;;;;;0.93;0.30;;;18.80;84.40;;;;;;6211568;23;20020;-85
2022/09/03 20:17:59;;;;;;;0.90;0.38;;;18.70;84.30;;;;;;6188569;23;20012;-85
2022/09/03 20:20:50;;;;;;;0.60;0.40;;;18.70;84.30;;;;;;6188207;23;20031;-85
2022/09/03 20:23:33;;;;;;;0.30;0.20;;;18.70;84.30;;;;;;6188127;23;20769;-85
2022/09/03 20:26:17;;;;;;;0.20;0.20;;;18.60;83.90;;;;;;6164918;23;20024;-86
2022/09/03 20:29:17;;;;;;;0.60;0.20;;;18.50;84.70;;;;;;6192961;23;20477;-86
2022/09/03 20:32:05;;;;;;;1.67;0.50;;;18.50;84.60;;;;;;6200464;23;20028;-86
2022/09/03 20:35:03;;;;;;;0.75;0.20;;;18.50;84.90;;;;;;6218833;23;20064;-84
2022/09/03 20:38:19;;;;;;;0.45;0.25;;;18.40;85.20;;;;;;6167406;23;20021;-85
2022/09/03 20:40:51;;;;;;;0.80;0.30;;;18.30;85.40;;;;;;6072140;23;20083;-84
2022/09/03 20:43:29;;;;;;;0.93;0.20;;;18.30;85.20;;;;;;6098076;23;20018;-85
2022/09/03 20:46:24;;;;;;;0.43;0.20;;;18.20;85.20;;;;;;6073866;23;20026;-85
2022/09/03 20:49:08;;;;;;;0.80;0.30;;;18.20;85.00;;;;;;5963592;24;20048;-85
2022/09/03 20:52:05;;;;;;;0.40;0.30;;;18.20;84.70;;;;;;5971632;24;20024;-85
2022/09/03 20:54:44;;;;;;;0.30;0.20;;;18.20;84.80;;;;;;5981741;23;20008;-85
2022/09/03 20:57:51;;;;;;;0.50;0.30;;;18.20;83.70;;;;;;6004015;24;20020;-85
2022/09/03 21:00:22;;;;;;;0.35;0.30;;;18.20;84.00;;;;;;5980314;24;20024;-83
2022/09/03 21:03:05;;;;;;;0.70;0.30;;;18.20;83.80;;;;;;5980717;24;20049;-84
2022/09/03 21:05:39;;;;;;;0.88;0.40;;;18.20;84.30;;;;;;5981994;24;20020;-84
2022/09/03 21:08:43;;;;;;;0.73;0.30;;;18.20;84.10;;;;;;5980908;24;20044;-85
2022/09/03 21:11:40;;;;;;;0.35;0.30;;;18.20;84.30;;;;;;5981603;24;20040;-84
2022/09/03 21:14:40;;;;;;;0.43;0.30;;;18.20;83.80;;;;;;6011194;23;20054;-83
2022/09/03 21:17:37;;;;;;;0.85;0.30;;;18.20;84.40;;;;;;6089980;23;20054;-86
2022/09/03 21:20:44;;;;;;;1.13;0.30;;;18.20;84.50;;;;;;6059302;23;20023;-86
2022/09/03 21:23:36;;;;;;;0.40;0.30;;;18.20;84.50;;;;;;6054555;23;20076;-86
2022/09/03 21:26:13;;;;;;;0.43;0.30;;;18.20;84.40;;;;;;6147933;23;20035;-86
2022/09/03 21:28:43;;;;;;;0.22;0.22;;;18.10;84.90;;;;;;6213129;23;20051;-85
2022/09/03 21:31:14;;;;;;;0.40;0.40;;;18.10;85.50;;;;;;6237851;23;20004;-86
2022/09/03 21:33:47;;;;;;;0.50;0.30;;;18.00;84.80;;;;;;6204908;23;20016;-86
2022/09/03 21:36:35;;;;;;;0.50;0.40;;;18.00;85.00;;;;;;6197295;23;20439;-84
2022/09/03 21:39:18;;;;;;;0.70;0.30;;;18.00;85.30;;;;;;6221595;23;20012;-84
2022/09/03 21:42:02;;;;;;;0.93;0.40;;;18.00;84.40;;;;;;6200603;23;20028;-84
2022/09/03 21:44:39;;;;;;;0.68;0.30;;;17.90;85.40;;;;;;6227511;23;20047;-84
2022/09/03 21:47:14;;;;;;;0.70;0.30;;;17.90;85.70;;;;;;6222859;23;20020;-84
2022/09/03 21:50:15;;;;;;;2.60;0.43;;;17.80;85.40;;;;;;6221702;23;20021;-84
2022/09/03 21:52:41;;;;;;;1.00;0.60;;;17.80;85.80;;;;;;6214699;23;20052;-85
2022/09/03 21:55:27;;;;;;;0.75;0.50;;;17.70;86.10;;;;;;6200136;23;20020;-85
2022/09/03 21:58:39;;;;;;;0.77;0.30;;;17.70;85.40;;;;;;6196943;23;20025;-85
2022/09/03 22:01:15;;;;;;;0.25;0.22;;;17.60;86.10;;;;;;6222181;23;20017;-85
2022/09/03 22:03:41;;;;;;;1.20;0.43;;;17.60;85.70;;;;;;6195455;23;20942;-85
2022/09/03 22:06:18;;;;;;;0.30;0.30;;;17.60;86.30;;;;;;6221258;23;20386;-85
2022/09/03 22:08:54;;;;;;;0.40;0.28;;;17.50;85.60;;;;;;6195292;23;20044;-85
2022/09/03 22:11:38;;;;;;;0.40;0.30;;;17.40;86.40;;;;;;6200243;23;20027;-85
2022/09/03 22:14:13;;;;;;;0.38;0.32;;;17.40;86.40;;;;;;6212273;23;20454;-85
2022/09/03 22:16:52;;;;;;;0.50;0.30;;;17.40;86.00;;;;;;6197114;23;20063;-85
2022/09/03 22:19:18;;;;;;;0.32;0.20;;;17.30;86.60;;;;;;6196266;23;20147;-86
2022/09/03 22:21:58;;;;;;;0.43;0.30;;;17.20;87.00;;;;;;6223467;23;20017;-85
2022/09/03 22:25:03;;;;;;;1.02;0.40;;;17.20;87.10;;;;;;6195802;23;20017;-85
2022/09/03 22:27:48;;;;;;;0.50;0.30;;;17.10;87.80;;;;;;6196054;23;20027;-85
2022/09/03 22:30:18;;;;;;;1.15;0.50;;;17.10;88.10;;;;;;6221213;23;20024;-84
2022/09/03 22:33:26;;;;;;;0.40;0.40;;;17.00;87.00;;;;;;6222215;23;20017;-84
2022/09/03 22:36:13;;;;;;;2.15;0.60;;;16.90;88.20;;;;;;6101210;23;20018;-84
2022/09/03 22:38:53;;;;;;;1.90;0.40;;;16.90;87.90;;;;;;6101036;23;20022;-85
2022/09/03 22:41:46;;;;;;;0.88;0.30;;;16.80;88.70;;;;;;6075347;23;20022;-85
2022/09/03 22:44:29;;;;;;;0.82;0.40;;;16.80;88.50;;;;;;5958028;24;20028;-86
2022/09/03 22:47:05;;;;;;;0.55;0.32;;;16.80;89.80;;;;;;5957616;24;20198;-85
2022/09/03 22:49:45;;;;;;;1.08;0.40;;;16.70;89.20;;;;;;5981141;24;20028;-86
2022/09/03 22:52:26;;;;;;;0.50;0.38;;;16.60;89.90;;;;;;5957846;24;20020;-85
2022/09/03 22:55:22;;;;;;;0.50;0.38;;;16.10;89.70;;;;;;5980957;24;20150;-85
2022/09/03 22:57:54;;;;;;;0.70;0.35;;;16.50;90.10;;;;;;5957713;24;20020;-84
2022/09/03 23:00:21;;;;;;;0.60;0.40;;;16.50;90.30;;;;;;5980901;24;20405;-85
2022/09/03 23:02:55;;;;;;;0.50;0.30;;;16.40;90.10;;;;;;5980862;24;20028;-85
2022/09/03 23:05:40;;;;;;;0.57;0.30;;;16.20;90.70;;;;;;5980653;24;20018;-85
2022/09/03 23:08:16;;;;;;;1.67;0.40;;;16.30;89.70;;;;;;5981221;24;20025;-85
2022/09/03 23:10:42;;;;;;;0.30;0.30;;;16.20;90.20;;;;;;5981082;24;20168;-84
2022/09/03 23:13:19;;;;;;;0.68;0.40;;;16.20;90.50;;;;;;6050135;23;20026;-84
2022/09/03 23:15:56;;;;;;;0.77;0.30;;;16.20;90.50;;;;;;6094736;23;20050;-84
2022/09/03 23:18:26;;;;;;;0.40;0.35;;;16.10;90.40;;;;;;6070364;23;20057;-85
2022/09/03 23:21:06;;;;;;;0.60;0.40;;;16.10;90.50;;;;;;6140044;23;20021;-85
2022/09/03 23:23:48;;;;;;;1.20;0.40;;;16.00;90.50;;;;;;6215399;23;20016;-85
2022/09/03 23:26:36;;;;;;;0.77;0.45;;;16.00;90.30;;;;;;6216019;23;20023;-85